Pago Pago, AS (96799)

11:54 PM SST on December 09, 2016 (GMT -1100)
Malaeimi | | Change Station

Elev 217 ft 14.32 °S, 170.74 °W | Updated 24 minutes ago

Rain
Rain
78.8 °F
Feels Like 83 °F
N
1.0
Wind Variable Wind from North
Gusts 1.0 mph

Today
High -- | Low -- °F
--% Chance of Precip.
Yesterday
High -- | Low -- °F
Precip. -- in
Pressure 29.96 in
Visibility 10.0 miles
Clouds Few 8500 ft
Heat Index 83 °F
Dew Point 78 °F
Humidity 98%
Rainfall 0.35 in
Snow Depth Not available.
5:46 AM 6:44 PM
Waxing Gibbous, 82% visible
METAR PHKO 100953Z AUTO 03007KT 10SM FEW085 23/19 A2996 RMK AO2 SLP145 T02330189 402610211 TSNO
Pressure 29.96 in
Visibility 10.0 miles
Clouds Few 8500 ft
Heat Index 83 °F
Dew Point 78 °F
Humidity 98%
Rainfall 0.35 in
Snow Depth Not available.
5:46 AM 6:44 PM
Waxing Gibbous, 82% visible
METAR PHKO 100953Z AUTO 03007KT 10SM FEW085 23/19 A2996 RMK AO2 SLP145 T02330189 402610211 TSNO

10-Day Weather Forecast

No radar image for this location.
×

Almanac

Astronomy

Dec. 09, 2016 Rise Set
Actual Time
Civil Twilight
Nautical Twilight
Astronomical Twilight
Moon
Length of Visible Light
Length of Day
Tomorrow will be .
, % of the Moon is Illuminated

Today's Extremes

State Highs State Lows

Community

WunderPhotos

Upload Photos

1,956,536 photos uploaded!

WunderBlog® & News

Nearby

Air Quality

  Air Quality AQ Index Pollutant
Not available.

Snow Depth

Station Depth Elevation

Earthquake Activity

City Distance Mag. Time & Date
Minimum magnitude displayed is 2.5.

Coastal Water Temperatures

Place Temperature

Stations

Nearby Weather Stations

Station Location Temp. Windchill Dew Point Humidity Wind Precip. Elev Updated Type
                   

Watches & Warnings

There are currently no watches in effect.